Time;durP1;ratioP1;P1;durP2;ratioP2;P2;SDS_P1;SDS_P2;PMS_P1;PMS_P2;Temp;Humidity;BMP_temperature;BMP_pressure;BME280_temperature;BME280_humidity;BME280_pressure;Samples;Min_cycle;Max_cycle;Signal;HPM_P1;HPM_P2
2022/01/07 05:30:30;;;;;;;;;5.25;5.00;;;;;5.32;72.94;101256.53;5081887;27;45557;-72
2022/01/07 05:32:55;;;;;;;;;4.00;2.00;;;;;5.15;72.70;101229.34;5057275;28;45425;-72
2022/01/07 05:35:21;;;;;;;;;6.00;6.00;;;;;5.10;73.08;101219.69;5057079;28;45373;-72
2022/01/07 05:37:46;;;;;;;;;6.00;2.75;;;;;5.15;73.24;101237.31;5057652;28;46121;-72
2022/01/07 05:40:12;;;;;;;;;4.00;4.00;;;;;5.14;73.43;101232.00;5056910;28;45165;-73
2022/01/07 05:42:37;;;;;;;;;6.00;3.00;;;;;5.17;73.03;101226.66;5057322;28;45292;-73
2022/01/07 05:45:03;;;;;;;;;5.75;5.00;;;;;5.26;73.34;101251.31;5056910;28;45316;-74
2022/01/07 05:47:28;;;;;;;;;9.00;4.50;;;;;5.25;73.00;101236.28;5057011;28;45438;-72
2022/01/07 05:49:54;;;;;;;;;3.75;2.00;;;;;5.29;73.16;101248.59;5056990;28;45425;-73
2022/01/07 05:52:19;;;;;;;;;10.00;3.00;;;;;5.07;73.44;101222.38;5057175;28;45504;-72
2022/01/07 05:54:44;;;;;;;;;5.50;4.50;;;;;5.07;73.41;101199.34;5045744;28;45543;-73
2022/01/07 05:57:10;;;;;;;;;6.00;2.50;;;;;5.32;73.48;101229.06;5056721;28;45361;-71
2022/01/07 05:59:35;;;;;;;;;7.00;5.50;;;;;5.52;72.80;101242.91;5056773;28;45303;-72
2022/01/07 06:02:00;;;;;;;;;5.00;4.50;;;;;5.46;72.84;101232.34;5056769;28;45507;-73
2022/01/07 06:04:26;;;;;;;;;6.75;5.75;;;;;5.55;73.41;101241.97;5038675;28;45363;-72
2022/01/07 06:06:51;;;;;;;;;5.25;5.00;;;;;5.45;73.07;101230.59;5056473;28;46033;-73
2022/01/07 06:09:16;;;;;;;;;6.75;5.75;;;;;5.46;73.88;101247.44;5056598;28;45402;-73
2022/01/07 06:11:42;;;;;;;;;7.75;6.00;;;;;5.54;73.57;101249.06;5066780;28;45478;-73
2022/01/07 06:14:07;;;;;;;;;5.00;5.00;;;;;5.49;73.08;101232.31;5063798;28;45532;-72
2022/01/07 06:16:33;;;;;;;;;3.00;3.00;;;;;5.57;73.18;101253.44;5056167;28;46203;-74
2022/01/07 06:18:59;;;;;;;;;3.00;3.00;;;;;5.56;73.30;101247.25;5054865;28;45492;-73
2022/01/07 06:21:25;;;;;;;;;3.00;3.00;;;;;5.48;73.91;101237.66;5055340;28;46004;-72
2022/01/07 06:23:51;;;;;;;;;6.00;4.50;;;;;5.58;73.20;101244.56;5055877;28;45335;-72
2022/01/07 06:26:17;;;;;;;;;3.75;3.00;;;;;5.67;73.52;101265.69;5055360;28;46204;-73
2022/01/07 06:28:43;;;;;;;;;5.75;5.75;;;;;5.67;73.38;101253.28;5055950;28;45316;-71
2022/01/07 06:31:09;;;;;;;;;6.50;4.25;;;;;5.81;73.38;101268.09;5055720;28;45364;-72
2022/01/07 06:33:34;;;;;;;;;2.50;2.00;;;;;5.74;73.54;101253.16;5056353;28;45581;-73
2022/01/07 06:35:59;;;;;;;;;8.50;6.00;;;;;5.78;73.70;101249.56;5056858;28;45399;-74
2022/01/07 06:38:25;;;;;;;;;5.00;3.00;;;;;5.81;73.55;101242.38;5057319;28;45469;-72
2022/01/07 06:40:50;;;;;;;;;10.75;3.75;;;;;5.78;73.64;101236.25;5055927;28;45445;-74
2022/01/07 06:43:15;;;;;;;;;3.00;3.00;;;;;5.74;73.49;101240.72;5056071;28;45534;-74
2022/01/07 06:45:41;;;;;;;;;7.25;3.25;;;;;5.89;73.46;101253.78;5055279;28;45434;-74
2022/01/07 06:48:06;;;;;;;;;2.00;1.50;;;;;5.78;73.53;101246.88;5056012;28;45510;-73
2022/01/07 06:50:32;;;;;;;;;3.00;3.00;;;;;5.78;74.08;101241.56;5056845;28;45412;-72
2022/01/07 06:52:57;;;;;;;;;7.00;3.00;;;;;5.81;73.68;101233.50;5056956;28;45465;-74
2022/01/07 06:55:22;;;;;;;;;6.00;6.00;;;;;5.75;73.99;101210.56;5056044;28;45322;-73
2022/01/07 06:57:48;;;;;;;;;5.25;2.00;;;;;5.81;73.52;101218.44;5037967;28;45498;-73
2022/01/07 07:00:14;;;;;;;;;6.75;6.00;;;;;6.02;73.52;101236.69;5055942;28;45529;-73
2022/01/07 07:02:39;;;;;;;;;5.75;3.75;;;;;6.04;73.58;101244.63;5037577;28;45280;-74
2022/01/07 07:05:05;;;;;;;;;3.75;3.75;;;;;5.94;73.66;101232.44;5055724;28;46299;-73
2022/01/07 07:07:30;;;;;;;;;5.25;3.50;;;;;5.92;73.82;101232.44;5056170;28;45352;-79
2022/01/07 07:09:56;;;;;;;;;7.75;5.00;;;;;6.00;73.94;101262.44;5057223;28;45415;-75
2022/01/07 07:12:21;;;;;;;;;5.50;5.00;;;;;6.01;73.90;101264.22;5037546;28;45556;-73
2022/01/07 07:14:46;;;;;;;;;5.50;3.00;;;;;6.01;74.21;101263.34;5056330;28;45359;-77
2022/01/07 07:17:12;;;;;;;;;6.50;4.25;;;;;5.99;74.19;101257.16;5038513;28;45386;-76
2022/01/07 07:19:38;;;;;;;;;6.75;6.75;;;;;5.99;74.39;101252.72;5057710;28;45340;-73
2022/01/07 07:22:03;;;;;;;;;11.00;1.00;;;;;6.04;74.93;101263.25;5056068;28;45513;-73
2022/01/07 07:24:29;;;;;;;;;7.00;4.25;;;;;6.03;74.72;101264.19;5055643;28;46215;-72
2022/01/07 07:26:54;;;;;;;;;11.00;4.25;;;;;6.08;74.66;101255.19;5055909;28;45380;-72
2022/01/07 07:29:20;;;;;;;;;6.25;6.00;;;;;6.01;75.06;101258.88;5055632;28;45414;-74
2022/01/07 07:31:49;;;;;;;;;4.75;3.00;;;;;5.90;75.17;101250.22;5055429;28;45290;-71
2022/01/07 07:36:59;;;;;;;;;5.00;3.25;;;;;6.04;75.10;101261.47;5054980;28;45440;-71
2022/01/07 07:39:24;;;;;;;;;8.00;5.00;;;;;6.12;74.90;101287.97;5036870;28;45388;-71
2022/01/07 07:41:49;;;;;;;;;3.25;3.25;;;;;5.96;75.03;101255.41;5055054;28;45432;-74
2022/01/07 07:44:15;;;;;;;;;7.00;6.00;;;;;6.19;75.01;101286.94;5055006;28;46103;-73
2022/01/07 07:46:41;;;;;;;;;9.00;4.25;;;;;6.25;74.42;101299.25;5053661;28;45296;-71
2022/01/07 07:49:08;;;;;;;;;4.50;3.50;;;;;6.31;74.96;101299.13;5055263;28;45295;-76
2022/01/07 07:51:34;;;;;;;;;4.50;4.50;;;;;6.19;74.91;101286.06;5050751;28;45349;-75
2022/01/07 07:53:59;;;;;;;;;5.75;5.75;;;;;6.37;75.33;101305.22;5047938;28;45588;-73
2022/01/07 07:56:26;;;;;;;;;6.25;4.25;;;;;6.33;75.36;101300.84;5029477;28;45820;-72
2022/01/07 07:58:52;;;;;;;;;3.00;3.00;;;;;6.34;75.47;101299.06;5039254;28;45506;-72
2022/01/07 08:01:18;;;;;;;;;3.75;3.25;;;;;6.17;75.81;101275.44;5026412;28;47581;-71
2022/01/07 08:03:45;;;;;;;;;7.75;2.50;;;;;6.33;76.11;101318.63;5041069;28;46484;-72
2022/01/07 08:06:12;;;;;;;;;5.75;4.00;;;;;6.38;76.68;101319.41;5052979;28;47316;-70
2022/01/07 08:08:37;;;;;;;;;5.25;3.25;;;;;6.36;76.50;101314.13;5044636;28;45319;-73
2022/01/07 08:11:05;;;;;;;;;6.50;3.50;;;;;6.30;76.85;101308.88;5023415;28;45982;-74
2022/01/07 08:15:58;;;;;;;;;2.75;2.00;;;;;6.31;76.94;101297.34;5020359;28;46424;-75
2022/01/07 08:16:19;;;;;;;;;4.75;3.00;;;;;6.23;76.96;101293.94;5048639;28;45315;-74
2022/01/07 08:18:50;;;;;;;;;6.25;3.00;;;;;6.30;76.97;101303.56;5052898;28;45501;-72
2022/01/07 08:21:16;;;;;;;;;3.50;3.50;;;;;6.32;76.55;101284.91;5051852;28;45481;-72
2022/01/07 08:23:43;;;;;;;;;4.25;3.00;;;;;6.19;76.45;101270.09;5052746;28;45399;-74
2022/01/07 08:26:17;;;;;;;;;1.00;1.00;;;;;6.30;76.84;101300.91;5029515;28;45650;-74
2022/01/07 08:28:47;;;;;;;;;2.25;1.25;;;;;6.38;76.13;101295.47;5045921;28;45444;-76
2022/01/07 08:36:29;;;;;;;;;2.00;2.00;;;;;6.43;75.23;101289.13;5052937;28;45467;-75
2022/01/07 08:38:55;;;;;;;;;3.25;2.75;;;;;6.54;75.17;101290.69;5034115;28;45609;-74
2022/01/07 08:41:23;;;;;;;;;3.00;2.00;;;;;6.49;75.52;101276.56;5034061;28;46555;-76
2022/01/07 08:43:48;;;;;;;;;1.25;1.25;;;;;6.57;75.66;101290.59;5051878;28;45529;-77
2022/01/07 08:46:14;;;;;;;;;1.00;1.00;;;;;6.54;74.73;101291.56;5052057;28;45393;-73
2022/01/07 08:48:39;;;;;;;;;1.00;1.00;;;;;6.50;75.29;101284.53;5048876;28;45848;-74
2022/01/07 08:51:07;;;;;;;;;2.00;1.00;;;;;6.58;74.97;101301.22;5050713;28;46074;-72
2022/01/07 08:53:33;;;;;;;;;3.25;2.00;;;;;6.57;74.92;101298.59;5052404;28;45527;-73
2022/01/07 08:55:58;;;;;;;;;1.00;0.00;;;;;6.52;75.00;101249.88;5055784;28;45418;-73
2022/01/07 08:58:24;;;;;;;;;2.00;0.00;;;;;6.58;74.35;101252.41;5054511;28;45727;-75
2022/01/07 09:00:51;;;;;;;;;1.75;1.00;;;;;6.51;75.14;101264.09;5055780;28;45389;-73
2022/01/07 09:03:16;;;;;;;;;1.00;1.00;;;;;6.34;74.62;101245.81;5052234;28;45327;-73
2022/01/07 09:05:42;;;;;;;;;0.50;0.50;;;;;6.50;75.25;101241.03;5054651;28;45495;-75
2022/01/07 09:08:10;;;;;;;;;3.75;1.00;;;;;6.16;75.00;101168.97;5056465;28;45365;-76
2022/01/07 09:10:36;;;;;;;;;1.75;0.00;;;;;6.47;74.79;101218.00;5058702;28;45421;-76
2022/01/07 09:13:02;;;;;;;;;3.00;1.25;;;;;6.56;75.57;101243.56;5059328;28;46254;-77
2022/01/07 09:15:27;;;;;;;;;2.00;2.00;;;;;6.40;75.36;101251.88;5058483;28;45402;-75
2022/01/07 09:17:53;;;;;;;;;1.00;1.00;;;;;6.46;75.73;101274.88;5057642;28;45376;-76
2022/01/07 09:20:20;;;;;;;;;1.00;1.00;;;;;6.51;75.83;101282.75;5056805;28;45398;-76
